Time,TemperatureF,DewpointF,PressureIn,WindDirection,WindDirectionDegrees,WindSpeedMPH,WindSpeedGustMPH,Humidity,HourlyPrecipIn,Conditions,Clouds,dailyrainin,SoftwareType,DateUTC
2013-03-05 00:10:00,60.5,47.0,29.75,WNW,301,8.0,19.0,62,0.00,,,0.00,weatherlink.com 1.10,2013-03-05 07:10:00,
2013-03-05 00:25:00,58.7,46.0,29.78,NW,316,9.0,26.0,63,0.00,,,0.00,weatherlink.com 1.10,2013-03-05 07:25:00,
2013-03-05 00:40:00,56.8,45.0,29.81,NW,319,11.0,19.0,65,0.00,,,0.00,weatherlink.com 1.10,2013-03-05 07:40:00,
2013-03-05 00:55:00,55.0,44.0,29.84,WNW,290,17.0,23.0,67,0.00,,,0.00,weatherlink.com 1.10,2013-03-05 07:55:00,
2013-03-05 01:10:00,53.5,44.0,29.86,NW,314,14.0,28.0,69,0.00,,,0.00,weatherlink.com 1.10,2013-03-05 08:10:00,
2013-03-05 01:25:00,52.1,44.0,29.88,WNW,285,16.0,23.0,73,0.00,,,0.00,weatherlink.com 1.10,2013-03-05 08:25:00,
2013-03-05 01:40:00,50.7,42.0,29.91,West,274,11.0,28.0,72,0.00,,,0.00,weatherlink.com 1.10,2013-03-05 08:40:00,
2013-03-05 01:55:00,49.9,42.0,29.91,NNW,341,9.0,30.0,73,0.00,,,0.00,weatherlink.com 1.10,2013-03-05 08:55:00,
2013-03-05 02:11:00,49.4,40.0,29.91,WNW,288,12.0,29.0,71,0.00,,,0.00,weatherlink.com 1.10,2013-03-05 09:11:00,
2013-03-05 02:26:00,49.3,40.0,29.96,NW,316,17.0,41.0,70,0.00,,,0.00,weatherlink.com 1.10,2013-03-05 09:26:00,
2013-03-05 02:41:00,49.5,40.0,30.00,NW,323,8.0,25.0,70,0.00,,,0.00,weatherlink.com 1.10,2013-03-05 09:41:00,
2013-03-05 02:56:00,49.4,39.0,30.01,WNW,297,9.0,44.0,67,0.00,,,0.00,weatherlink.com 1.10,2013-03-05 09:56:00,
2013-03-05 03:11:00,49.3,37.0,30.01,NW,316,6.0,27.0,63,0.00,,,0.00,weatherlink.com 1.10,2013-03-05 10:11:00,
2013-03-05 03:26:00,49.0,36.0,30.03,NNW,330,12.0,21.0,62,0.00,,,0.00,weatherlink.com 1.10,2013-03-05 10:26:00,
2013-03-05 03:41:00,48.9,36.0,30.04,NW,318,9.0,18.0,62,0.00,,,0.00,weatherlink.com 1.10,2013-03-05 10:41:00,
2013-03-05 03:56:00,48.8,37.0,30.05,NW,304,8.0,19.0,63,0.00,,,0.00,weatherlink.com 1.10,2013-03-05 10:56:00,
2013-03-05 04:11:00,48.6,36.0,30.06,NW,323,10.0,23.0,63,0.00,,,0.00,weatherlink.com 1.10,2013-03-05 11:11:00,
2013-03-05 04:26:00,48.1,37.0,30.06,NW,317,4.0,20.0,65,0.00,,,0.00,weatherlink.com 1.10,2013-03-05 11:26:00,
2013-03-05 04:41:00,47.7,37.0,30.07,NW,326,11.0,34.0,66,0.00,,,0.00,weatherlink.com 1.10,2013-03-05 11:41:00,
2013-03-05 04:56:00,46.9,36.0,30.08,NW,320,2.0,24.0,67,0.00,,,0.00,weatherlink.com 1.10,2013-03-05 11:56:00,
2013-03-05 05:11:00,46.4,36.0,30.09,NW,311,6.0,21.0,68,0.00,,,0.00,weatherlink.com 1.10,2013-03-05 12:11:00,
2013-03-05 05:26:00,46.2,37.0,30.11,WNW,287,7.0,15.0,71,0.00,,,0.00,weatherlink.com 1.10,2013-03-05 12:26:00,
2013-03-05 05:41:00,46.3,36.0,30.11,NW,311,8.0,25.0,67,0.00,,,0.00,weatherlink.com 1.10,2013-03-05 12:41:00,
2013-03-05 05:56:00,46.0,36.0,30.13,WNW,289,4.0,20.0,67,0.00,,,0.00,weatherlink.com 1.10,2013-03-05 12:56:00,
2013-03-05 06:11:00,45.8,35.0,30.14,NW,316,16.0,22.0,67,0.00,,,0.00,weatherlink.com 1.10,2013-03-05 13:11:00,
2013-03-05 06:26:00,46.1,35.0,30.16,NW,326,6.0,17.0,65,0.00,,,0.00,weatherlink.com 1.10,2013-03-05 13:26:00,
2013-03-05 06:41:00,46.3,33.0,30.17,NW,311,11.0,26.0,61,0.00,,,0.00,weatherlink.com 1.10,2013-03-05 13:41:00,
2013-03-05 06:57:00,46.4,34.0,30.18,WNW,300,7.0,22.0,62,0.00,,,0.00,weatherlink.com 1.10,2013-03-05 13:57:00,
2013-03-05 07:12:00,46.7,35.0,30.18,WNW,300,8.0,21.0,63,0.00,,,0.00,weatherlink.com 1.10,2013-03-05 14:12:00,
2013-03-05 07:27:00,46.9,34.0,30.19,NW,307,10.0,23.0,61,0.00,,,0.00,weatherlink.com 1.10,2013-03-05 14:27:00,
2013-03-05 07:42:00,47.4,34.0,30.20,NNW,342,13.0,19.0,59,0.00,,,0.00,weatherlink.com 1.10,2013-03-05 14:42:00,
2013-03-05 07:57:00,47.8,32.0,30.20,NW,307,7.0,22.0,54,0.00,,,0.00,weatherlink.com 1.10,2013-03-05 14:57:00,
2013-03-05 08:12:00,48.7,33.0,30.21,NNW,340,5.0,20.0,55,0.00,,,0.00,weatherlink.com 1.10,2013-03-05 15:12:00,
2013-03-05 08:27:00,49.5,32.0,30.22,NW,311,8.0,19.0,52,0.00,,,0.00,weatherlink.com 1.10,2013-03-05 15:27:00,
2013-03-05 08:42:00,49.5,29.0,30.22,NW,311,11.0,23.0,46,0.00,,,0.00,weatherlink.com 1.10,2013-03-05 15:42:00,
2013-03-05 08:57:00,49.8,28.0,30.23,NNW,327,5.0,21.0,44,0.00,,,0.00,weatherlink.com 1.10,2013-03-05 15:57:00,
2013-03-05 09:12:00,50.6,30.0,30.23,WNW,297,11.0,17.0,45,0.00,,,0.00,weatherlink.com 1.10,2013-03-05 16:12:00,
2013-03-05 09:27:00,50.3,30.0,30.24,NW,311,5.0,22.0,45,0.00,,,0.00,weatherlink.com 1.10,2013-03-05 16:27:00,
2013-03-05 09:42:00,51.1,30.0,30.25,NW,311,11.0,18.0,44,0.00,,,0.00,weatherlink.com 1.10,2013-03-05 16:42:00,
2013-03-05 09:57:00,51.4,30.0,30.26,NW,309,12.0,22.0,44,0.00,,,0.00,weatherlink.com 1.10,2013-03-05 16:57:00,
2013-03-05 10:12:00,51.4,27.0,30.27,WNW,301,11.0,23.0,39,0.00,,,0.00,weatherlink.com 1.10,2013-03-05 17:12:00,
2013-03-05 10:27:00,51.4,29.0,30.26,NW,307,12.0,25.0,42,0.00,,,0.00,weatherlink.com 1.10,2013-03-05 17:27:00,
2013-03-05 10:43:00,52.2,28.0,30.26,WNW,301,17.0,19.0,40,0.00,,,0.00,weatherlink.com 1.10,2013-03-05 17:43:00,
2013-03-05 10:57:00,52.2,28.0,30.26,WNW,300,10.0,19.0,40,0.00,,,0.00,weatherlink.com 1.10,2013-03-05 17:57:00,
2013-03-05 11:12:00,52.8,28.0,30.26,NW,311,9.0,29.0,39,0.00,,,0.00,weatherlink.com 1.10,2013-03-05 18:12:00,
2013-03-05 11:27:00,52.6,29.0,30.26,WNW,301,5.0,18.0,40,0.00,,,0.00,weatherlink.com 1.10,2013-03-05 18:27:00,
2013-03-05 11:42:00,53.1,30.0,30.26,NNW,330,8.0,14.0,41,0.00,,,0.00,weatherlink.com 1.10,2013-03-05 18:42:00,
2013-03-05 11:57:00,53.6,27.0,30.26,WNW,293,8.0,22.0,36,0.00,,,0.00,weatherlink.com 1.10,2013-03-05 18:57:00,
2013-03-05 12:12:00,53.4,28.0,30.25,WNW,288,7.0,18.0,37,0.00,,,0.00,weatherlink.com 1.10,2013-03-05 19:12:00,
2013-03-05 12:27:00,54.2,27.0,30.25,NW,311,11.0,18.0,35,0.00,,,0.00,weatherlink.com 1.10,2013-03-05 19:27:00,
2013-03-05 12:42:00,54.4,28.0,30.25,WNW,290,10.0,15.0,36,0.00,,,0.00,weatherlink.com 1.10,2013-03-05 19:42:00,
2013-03-05 12:57:00,54.3,30.0,30.24,NNW,328,3.0,19.0,39,0.00,,,0.00,weatherlink.com 1.10,2013-03-05 19:57:00,
2013-03-05 13:12:00,54.9,28.0,30.24,WNW,297,10.0,16.0,36,0.00,,,0.00,weatherlink.com 1.10,2013-03-05 20:12:00,
2013-03-05 13:27:00,54.9,28.0,30.23,WNW,295,4.0,18.0,35,0.00,,,0.00,weatherlink.com 1.10,2013-03-05 20:27:00,
2013-03-05 13:42:00,55.3,26.0,30.23,WNW,298,9.0,19.0,33,0.00,,,0.00,weatherlink.com 1.10,2013-03-05 20:42:00,
2013-03-05 13:57:00,55.3,27.0,30.23,NW,319,9.0,15.0,34,0.00,,,0.00,weatherlink.com 1.10,2013-03-05 20:57:00,
2013-03-05 14:12:00,55.5,27.0,30.23,NW,309,9.0,16.0,33,0.00,,,0.00,weatherlink.com 1.10,2013-03-05 21:12:00,
2013-03-05 14:27:00,55.5,27.0,30.23,WNW,293,7.0,16.0,34,0.00,,,0.00,weatherlink.com 1.10,2013-03-05 21:27:00,
2013-03-05 14:42:00,55.4,25.0,30.23,WNW,301,8.0,15.0,31,0.00,,,0.00,weatherlink.com 1.10,2013-03-05 21:42:00,
2013-03-05 14:57:00,55.6,26.0,30.23,SW,234,9.0,16.0,32,0.00,,,0.00,weatherlink.com 1.10,2013-03-05 21:57:00,
2013-03-05 15:12:00,55.6,25.0,30.23,WSW,243,2.0,14.0,31,0.00,,,0.00,weatherlink.com 1.10,2013-03-05 22:12:00,
2013-03-05 15:27:00,55.5,27.0,30.23,West,269,6.0,13.0,33,0.00,,,0.00,weatherlink.com 1.10,2013-03-05 22:27:00,
2013-03-05 15:42:00,55.4,25.0,30.23,WNW,297,12.0,12.0,31,0.00,,,0.00,weatherlink.com 1.10,2013-03-05 22:42:00,
2013-03-05 15:57:00,55.3,26.0,30.23,NW,304,6.0,12.0,33,0.00,,,0.00,weatherlink.com 1.10,2013-03-05 22:57:00,
2013-03-05 16:12:00,55.3,29.0,30.23,NW,304,7.0,10.0,37,0.00,,,0.00,weatherlink.com 1.10,2013-03-05 23:12:00,
2013-03-05 16:27:00,54.8,25.0,30.23,WSW,248,4.0,13.0,32,0.00,,,0.00,weatherlink.com 1.10,2013-03-05 23:27:00,
2013-03-05 16:42:00,54.4,27.0,30.24,WNW,290,4.0,12.0,35,0.00,,,0.00,weatherlink.com 1.10,2013-03-05 23:42:00,
2013-03-05 16:57:00,53.8,28.0,30.24,WNW,301,6.0,12.0,37,0.00,,,0.00,weatherlink.com 1.10,2013-03-05 23:57:00,
2013-03-05 17:12:00,53.0,27.0,30.25,WSW,250,1.0,8.0,36,0.00,,,0.00,weatherlink.com 1.10,2013-03-06 00:12:00,
2013-03-05 17:27:00,52.0,28.0,30.25,WNW,300,3.0,7.0,39,0.00,,,0.00,weatherlink.com 1.10,2013-03-06 00:27:00,
2013-03-05 17:42:00,50.9,28.0,30.26,WNW,297,0.0,5.0,41,0.00,,,0.00,weatherlink.com 1.10,2013-03-06 00:42:00,
2013-03-05 17:57:00,49.8,28.0,30.27,WNW,291,1.0,3.0,43,0.00,,,0.00,weatherlink.com 1.10,2013-03-06 00:57:00,
2013-03-05 18:12:00,48.8,27.0,30.27,WNW,293,0.0,3.0,43,0.00,,,0.00,weatherlink.com 1.10,2013-03-06 01:12:00,
2013-03-05 18:27:00,48.1,28.0,30.27,WNW,300,1.0,3.0,45,0.00,,,0.00,weatherlink.com 1.10,2013-03-06 01:27:00,
2013-03-05 18:42:00,48.0,28.0,30.28,WNW,300,3.0,4.0,46,0.00,,,0.00,weatherlink.com 1.10,2013-03-06 01:42:00,
2013-03-05 18:57:00,47.6,28.0,30.28,WNW,302,2.0,4.0,46,0.00,,,0.00,weatherlink.com 1.10,2013-03-06 01:57:00,
2013-03-05 19:12:00,48.0,27.0,30.29,NW,304,2.0,4.0,45,0.00,,,0.00,weatherlink.com 1.10,2013-03-06 02:12:00,
2013-03-05 19:28:00,47.1,28.0,30.29,WNW,300,0.0,3.0,47,0.00,,,0.00,weatherlink.com 1.10,2013-03-06 02:28:00,
2013-03-05 19:43:00,46.5,28.0,30.30,WNW,301,3.0,4.0,49,0.00,,,0.00,weatherlink.com 1.10,2013-03-06 02:43:00,
2013-03-05 19:58:00,46.0,28.0,30.30,WNW,301,3.0,6.0,50,0.00,,,0.00,weatherlink.com 1.10,2013-03-06 02:58:00,
2013-03-05 20:13:00,45.6,28.0,30.30,WNW,296,1.0,5.0,51,0.00,,,0.00,weatherlink.com 1.10,2013-03-06 03:13:00,
2013-03-05 20:28:00,45.3,27.0,30.31,NW,304,1.0,4.0,50,0.00,,,0.00,weatherlink.com 1.10,2013-03-06 03:28:00,
2013-03-05 20:43:00,44.8,26.0,30.31,NW,316,1.0,3.0,48,0.00,,,0.00,weatherlink.com 1.10,2013-03-06 03:43:00,
2013-03-05 20:58:00,44.1,26.0,30.31,NW,311,0.0,6.0,50,0.00,,,0.00,weatherlink.com 1.10,2013-03-06 03:58:00,
2013-03-05 21:13:00,43.5,27.0,30.32,WNW,294,0.0,0.0,53,0.00,,,0.00,weatherlink.com 1.10,2013-03-06 04:13:00,
2013-03-05 21:28:00,42.5,29.0,30.32,WNW,297,0.0,1.0,59,0.00,,,0.00,weatherlink.com 1.10,2013-03-06 04:28:00,
2013-03-05 21:43:00,42.5,26.0,30.32,WNW,298,0.0,5.0,53,0.00,,,0.00,weatherlink.com 1.10,2013-03-06 04:43:00,
2013-03-05 21:58:00,42.2,28.0,30.32,NW,311,0.0,6.0,58,0.00,,,0.00,weatherlink.com 1.10,2013-03-06 04:58:00,
2013-03-05 22:13:00,41.9,27.0,30.32,NW,304,3.0,3.0,56,0.00,,,0.00,weatherlink.com 1.10,2013-03-06 05:13:00,
2013-03-05 22:28:00,41.6,26.0,30.32,NW,307,1.0,4.0,54,0.00,,,0.00,weatherlink.com 1.10,2013-03-06 05:28:00,
2013-03-05 22:43:00,42.2,27.0,30.32,WNW,297,4.0,7.0,55,0.00,,,0.00,weatherlink.com 1.10,2013-03-06 05:43:00,
2013-03-05 22:58:00,43.3,26.0,30.32,NW,318,2.0,7.0,51,0.00,,,0.00,weatherlink.com 1.10,2013-03-06 05:58:00,
2013-03-05 23:13:00,44.4,25.0,30.34,NW,316,5.0,11.0,47,0.00,,,0.00,weatherlink.com 1.10,2013-03-06 06:13:00,
2013-03-05 23:28:00,44.1,26.0,30.33,NW,316,6.0,8.0,50,0.00,,,0.00,weatherlink.com 1.10,2013-03-06 06:28:00,
2013-03-05 23:43:00,44.1,25.0,30.34,NW,320,5.0,10.0,48,0.00,,,0.00,weatherlink.com 1.10,2013-03-06 06:43:00,
2013-03-05 23:58:00,44.0,26.0,30.34,NE,34,6.0,10.0,49,0.00,,,0.00,weatherlink.com 1.10,2013-03-06 06:58:00,